Time;durP1;ratioP1;P1;durP2;ratioP2;P2;SDS_P1;SDS_P2;PMS_P1;PMS_P2;Temp;Humidity;BMP_temperature;BMP_pressure;BME280_temperature;BME280_humidity;BME280_pressure;Samples;Min_cycle;Max_cycle;Signal;HPM_P1;HPM_P2
2024/01/20 00:01:38;;;;;;;13.20;6.17;;;-0.80;99.90;;;;;;5119480;27;20209;-70
2024/01/20 00:04:04;;;;;;;11.30;5.47;;;-0.90;99.90;;;;;;5090856;27;20214;-71
2024/01/20 00:06:29;;;;;;;12.60;6.77;;;-1.20;99.90;;;;;;5109703;27;20225;-71
2024/01/20 00:08:55;;;;;;;14.70;7.10;;;-1.50;99.90;;;;;;5095030;27;20459;-71
2024/01/20 00:11:22;;;;;;;16.17;7.10;;;-1.50;99.90;;;;;;5123989;27;20233;-71
2024/01/20 00:13:47;;;;;;;14.80;6.07;;;-1.70;99.90;;;;;;5109598;27;20450;-71
2024/01/20 00:16:13;;;;;;;14.30;6.97;;;-1.80;99.90;;;;;;5129621;27;20451;-71
2024/01/20 00:18:38;;;;;;;19.80;7.47;;;-2.00;99.90;;;;;;5109372;27;20218;-71
2024/01/20 00:21:04;;;;;;;11.47;5.17;;;-2.50;99.90;;;;;;5118080;27;20210;-71
2024/01/20 00:23:30;;;;;;;14.07;6.13;;;-2.70;99.90;;;;;;5126499;27;20227;-71
2024/01/20 00:25:55;;;;;;;12.97;6.00;;;-2.70;99.90;;;;;;5107784;27;20210;-71
2024/01/20 00:28:21;;;;;;;13.47;7.23;;;-2.60;99.90;;;;;;5118457;27;20573;-71
2024/01/20 00:30:47;;;;;;;12.00;5.97;;;-2.40;99.90;;;;;;5108005;27;20206;-71
2024/01/20 00:33:13;;;;;;;11.50;6.50;;;-2.20;99.90;;;;;;5106174;27;20218;-71
2024/01/20 00:35:42;;;;;;;14.67;5.60;;;-2.00;99.90;;;;;;5117989;27;20221;-71
2024/01/20 00:38:08;;;;;;;14.47;6.80;;;-1.80;99.90;;;;;;5094169;27;20212;-71
2024/01/20 00:40:33;;;;;;;12.70;6.43;;;-1.50;99.90;;;;;;5091490;27;20451;-70
2024/01/20 00:42:59;;;;;;;14.40;5.90;;;-1.30;99.90;;;;;;5112533;27;20513;-71
2024/01/20 00:45:25;;;;;;;17.83;6.40;;;-1.20;99.90;;;;;;5126169;27;20219;-71
2024/01/20 00:47:51;;;;;;;18.60;7.50;;;-1.10;99.90;;;;;;5128603;27;20370;-71
2024/01/20 00:50:16;;;;;;;17.00;8.97;;;-1.20;99.90;;;;;;5121107;27;20207;-71
2024/01/20 00:52:42;;;;;;;10.53;5.57;;;-1.40;99.90;;;;;;5130296;27;20706;-70
2024/01/20 00:55:08;;;;;;;12.00;5.30;;;-1.40;99.90;;;;;;5107467;27;20298;-71
2024/01/20 00:57:34;;;;;;;14.70;5.33;;;-1.50;99.90;;;;;;5110286;27;20252;-71
2024/01/20 00:59:59;;;;;;;10.37;5.27;;;-1.40;99.90;;;;;;5090548;27;20206;-70
2024/01/20 01:02:25;;;;;;;10.87;5.30;;;-1.30;99.90;;;;;;5108851;27;20228;-71
2024/01/20 01:04:51;;;;;;;13.40;5.80;;;-1.30;99.90;;;;;;5109195;27;20306;-71
2024/01/20 01:07:17;;;;;;;11.17;5.40;;;-1.90;99.90;;;;;;5120973;27;20514;-71
2024/01/20 01:09:43;;;;;;;15.13;5.87;;;-1.80;99.90;;;;;;5097478;27;20512;-70
2024/01/20 01:12:08;;;;;;;13.77;6.67;;;-1.50;99.90;;;;;;5111174;27;20201;-70
2024/01/20 01:14:34;;;;;;;15.43;6.83;;;-1.40;99.90;;;;;;5108657;27;20282;-71
2024/01/20 01:17:00;;;;;;;11.10;4.90;;;-1.30;99.90;;;;;;5115763;27;20204;-71
2024/01/20 01:19:25;;;;;;;14.33;5.50;;;-1.40;99.90;;;;;;5130074;27;20237;-70
2024/01/20 01:21:51;;;;;;;10.33;5.20;;;-1.60;99.90;;;;;;5108121;27;20228;-71
2024/01/20 01:24:17;;;;;;;10.33;5.70;;;-1.40;99.90;;;;;;5129311;27;20293;-70
2024/01/20 01:26:42;;;;;;;10.87;5.80;;;-1.30;99.90;;;;;;5106705;27;20211;-70
2024/01/20 01:29:08;;;;;;;12.53;5.17;;;-1.20;99.90;;;;;;5122562;27;20206;-70
2024/01/20 01:31:34;;;;;;;13.47;5.80;;;-1.20;99.90;;;;;;5103660;27;20197;-70
2024/01/20 01:34:00;;;;;;;14.77;6.00;;;-1.20;99.90;;;;;;5121082;27;20516;-71
2024/01/20 01:36:26;;;;;;;19.13;6.43;;;-1.20;99.90;;;;;;5128239;27;20217;-70
2024/01/20 01:38:51;;;;;;;8.83;6.23;;;-1.20;99.90;;;;;;5108926;27;20459;-71
2024/01/20 01:41:19;;;;;;;12.30;6.77;;;-1.20;99.90;;;;;;5123332;27;20260;-70
2024/01/20 01:43:44;;;;;;;13.83;5.40;;;-1.20;99.90;;;;;;5108558;27;20210;-70
2024/01/20 01:46:10;;;;;;;14.47;6.97;;;-1.20;99.90;;;;;;5108336;27;20854;-69
2024/01/20 01:48:36;;;;;;;12.67;5.33;;;-1.30;99.90;;;;;;5126274;27;20228;-70
2024/01/20 01:51:05;;;;;;;13.20;5.67;;;-1.30;99.90;;;;;;5127426;27;20205;-70
2024/01/20 01:53:32;;;;;;;13.83;5.87;;;-1.30;99.90;;;;;;5091679;27;20229;-70
2024/01/20 01:56:00;;;;;;;10.33;5.73;;;-1.40;99.90;;;;;;5126184;27;21015;-71
2024/01/20 01:58:29;;;;;;;12.53;4.90;;;-2.30;99.90;;;;;;5128093;27;20442;-70
2024/01/20 02:00:55;;;;;;;13.60;6.27;;;-2.20;99.90;;;;;;5111507;27;20479;-71
2024/01/20 02:03:21;;;;;;;10.80;5.70;;;-2.00;99.90;;;;;;5122828;27;20534;-70
2024/01/20 02:05:46;;;;;;;13.67;5.40;;;-1.80;99.90;;;;;;5092498;27;20214;-70
2024/01/20 02:08:12;;;;;;;9.03;4.87;;;-1.70;99.90;;;;;;5106840;27;20436;-70
2024/01/20 02:10:39;;;;;;;16.20;6.37;;;-1.70;99.90;;;;;;5110033;27;20224;-71
2024/01/20 02:13:06;;;;;;;14.30;5.70;;;-1.60;99.90;;;;;;5097257;28;20210;-71
2024/01/20 02:15:33;;;;;;;9.70;5.33;;;-1.60;99.90;;;;;;5127846;27;20464;-70
2024/01/20 02:17:59;;;;;;;11.03;5.70;;;-1.60;99.90;;;;;;5092961;27;20454;-71
2024/01/20 02:20:25;;;;;;;6.20;4.40;;;-1.60;99.90;;;;;;5124767;27;20444;-70
2024/01/20 02:22:50;;;;;;;11.47;4.90;;;-1.70;99.90;;;;;;5111189;27;20252;-71
2024/01/20 02:25:16;;;;;;;7.17;3.73;;;-2.00;99.90;;;;;;5103586;28;20264;-70
2024/01/20 02:27:42;;;;;;;13.60;5.97;;;-2.10;99.90;;;;;;5111127;27;20254;-71
2024/01/20 02:30:08;;;;;;;6.97;4.00;;;-2.20;99.90;;;;;;5128245;27;20671;-70
2024/01/20 02:32:33;;;;;;;8.83;5.17;;;-2.30;99.90;;;;;;5088894;27;20250;-70
2024/01/20 02:34:59;;;;;;;13.63;5.10;;;-3.10;99.90;;;;;;5095184;28;20495;-70
2024/01/20 02:37:25;;;;;;;7.90;5.10;;;-3.50;99.90;;;;;;5127625;27;20209;-70
2024/01/20 02:39:51;;;;;;;8.37;4.70;;;-3.60;99.90;;;;;;5127934;27;20221;-70
2024/01/20 02:42:16;;;;;;;10.40;3.70;;;-3.40;99.90;;;;;;5089684;27;20231;-70
2024/01/20 02:44:42;;;;;;;7.90;4.53;;;-3.10;99.90;;;;;;5106831;28;20313;-70
2024/01/20 02:47:08;;;;;;;7.43;4.00;;;-2.50;99.90;;;;;;5123348;27;20204;-70
2024/01/20 02:49:34;;;;;;;8.77;3.63;;;-2.20;99.90;;;;;;5104810;28;20239;-70
2024/01/20 02:52:00;;;;;;;7.97;5.43;;;-2.00;99.90;;;;;;5119763;28;21060;-70
2024/01/20 02:54:26;;;;;;;13.20;4.97;;;-2.00;99.90;;;;;;5127521;27;20458;-70
2024/01/20 02:56:51;;;;;;;7.10;4.20;;;-1.90;99.90;;;;;;5110261;28;20229;-70
2024/01/20 02:59:17;;;;;;;14.63;5.30;;;-1.80;99.90;;;;;;5103552;27;20248;-70
2024/01/20 03:01:42;;;;;;;11.20;4.83;;;-1.80;99.90;;;;;;5097882;28;20210;-70
2024/01/20 03:04:08;;;;;;;6.43;5.00;;;-1.90;99.90;;;;;;5120462;27;20233;-70
2024/01/20 03:06:34;;;;;;;10.30;5.07;;;-1.90;99.90;;;;;;5110390;27;20220;-71
2024/01/20 03:08:59;;;;;;;12.73;5.30;;;-2.00;99.90;;;;;;5105235;28;20309;-70
2024/01/20 03:11:25;;;;;;;13.13;4.20;;;-2.50;99.90;;;;;;5114554;27;20288;-70
2024/01/20 03:13:51;;;;;;;9.33;4.40;;;-3.10;99.90;;;;;;5110094;28;20217;-70
2024/01/20 03:16:17;;;;;;;8.07;4.03;;;-3.20;99.90;;;;;;5113396;28;20233;-70
2024/01/20 03:18:42;;;;;;;9.67;5.13;;;-3.10;99.90;;;;;;5127102;27;20281;-70
2024/01/20 03:21:08;;;;;;;10.07;4.47;;;-2.60;99.90;;;;;;5106733;28;20282;-70
2024/01/20 03:23:34;;;;;;;9.83;3.63;;;-2.30;99.90;;;;;;5123480;27;20252;-70
2024/01/20 03:26:07;;;;;;;11.97;6.03;;;-2.10;99.90;;;;;;5123873;27;20518;-70
2024/01/20 03:28:33;;;;;;;11.73;5.20;;;-1.90;99.90;;;;;;5109506;28;20466;-70
2024/01/20 03:30:59;;;;;;;9.23;4.60;;;-1.80;99.90;;;;;;5101695;28;20449;-70
2024/01/20 03:33:24;;;;;;;12.40;3.83;;;-1.90;99.90;;;;;;5112007;27;20221;-70
2024/01/20 03:35:50;;;;;;;9.00;3.43;;;-1.80;99.90;;;;;;5109726;28;20230;-70
2024/01/20 03:38:17;;;;;;;9.07;4.47;;;-1.80;99.90;;;;;;5108261;27;20229;-69
2024/01/20 03:40:43;;;;;;;12.70;5.53;;;-1.80;99.90;;;;;;5110589;28;20696;-70
2024/01/20 03:43:10;;;;;;;10.93;5.17;;;-1.90;99.90;;;;;;5108262;28;20467;-70
2024/01/20 03:45:35;;;;;;;8.80;4.60;;;-1.90;99.90;;;;;;5119600;27;20472;-70
2024/01/20 03:48:01;;;;;;;8.10;4.70;;;-1.90;99.90;;;;;;5106635;28;20547;-70
2024/01/20 03:50:27;;;;;;;8.40;3.77;;;-2.00;99.90;;;;;;5125915;27;20293;-70
2024/01/20 03:52:52;;;;;;;14.23;4.67;;;-2.20;99.90;;;;;;5108260;28;20339;-70
2024/01/20 03:55:18;;;;;;;11.00;5.10;;;-2.20;99.90;;;;;;5128044;27;20317;-70
2024/01/20 03:57:43;;;;;;;10.20;3.77;;;-2.30;99.90;;;;;;5084029;28;20218;-70
2024/01/20 04:00:10;;;;;;;12.10;4.83;;;-2.20;99.90;;;;;;5112941;27;20210;-70
2024/01/20 04:02:35;;;;;;;12.80;6.20;;;-2.10;99.90;;;;;;5109189;27;20736;-70
2024/01/20 04:05:01;;;;;;;10.07;5.13;;;-2.10;99.90;;;;;;5128278;27;20452;-70
2024/01/20 04:07:26;;;;;;;10.13;4.77;;;-2.40;99.90;;;;;;5092226;27;20214;-70
2024/01/20 04:09:52;;;;;;;11.83;5.80;;;-2.60;99.90;;;;;;5113911;27;20240;-70
2024/01/20 04:12:18;;;;;;;7.03;3.90;;;-2.60;99.90;;;;;;5111716;27;20233;-70
2024/01/20 04:14:43;;;;;;;15.47;5.93;;;-2.50;99.90;;;;;;5113791;27;20214;-70
2024/01/20 04:17:10;;;;;;;10.47;3.77;;;-2.40;99.90;;;;;;5093755;27;20234;-70
2024/01/20 04:19:35;;;;;;;7.47;4.03;;;-2.80;99.90;;;;;;5112108;27;20614;-70
2024/01/20 04:22:01;;;;;;;6.90;3.60;;;-3.00;99.90;;;;;;5112883;27;20457;-70
2024/01/20 04:24:27;;;;;;;10.70;5.20;;;-3.00;99.90;;;;;;5127595;27;20214;-70
2024/01/20 04:26:53;;;;;;;5.57;3.00;;;-2.70;99.90;;;;;;5113279;27;20229;-70
2024/01/20 04:29:18;;;;;;;7.90;3.60;;;-2.60;99.90;;;;;;5111472;27;20213;-70
2024/01/20 04:31:44;;;;;;;13.33;4.47;;;-2.80;99.90;;;;;;5090462;27;20209;-70
2024/01/20 04:34:10;;;;;;;7.10;3.70;;;-3.00;99.90;;;;;;5108881;27;20249;-70
2024/01/20 04:36:35;;;;;;;11.10;4.43;;;-2.90;99.90;;;;;;5130207;27;20225;-70
2024/01/20 04:39:01;;;;;;;11.63;4.03;;;-2.90;99.90;;;;;;5099835;27;20342;-70
2024/01/20 04:41:26;;;;;;;11.13;4.77;;;-3.00;99.90;;;;;;5106376;27;20255;-70
2024/01/20 04:43:52;;;;;;;3.90;2.23;;;-3.60;99.90;;;;;;5126635;27;20240;-70
2024/01/20 04:46:18;;;;;;;8.57;4.13;;;-3.90;99.90;;;;;;5109184;28;20292;-70
2024/01/20 04:48:44;;;;;;;7.00;3.77;;;-3.60;99.90;;;;;;5112624;27;20703;-69
2024/01/20 04:51:09;;;;;;;9.87;4.20;;;-3.20;99.90;;;;;;5111393;27;20246;-69
2024/01/20 04:53:35;;;;;;;5.13;3.20;;;-2.80;99.90;;;;;;5112715;27;20217;-70
2024/01/20 04:56:04;;;;;;;10.17;3.80;;;-2.80;99.90;;;;;;5106433;28;20233;-70
2024/01/20 04:58:31;;;;;;;7.70;3.50;;;-2.90;99.90;;;;;;5101637;27;20250;-70
2024/01/20 05:00:56;;;;;;;8.50;3.87;;;-3.10;99.90;;;;;;5105687;27;20980;-70
2024/01/20 05:03:22;;;;;;;6.67;3.20;;;-3.40;99.90;;;;;;5092597;27;20448;-69
2024/01/20 05:05:48;;;;;;;11.27;4.80;;;-3.20;99.90;;;;;;5128526;27;20243;-70
2024/01/20 05:08:13;;;;;;;7.57;2.97;;;-3.10;99.90;;;;;;5104755;28;20241;-70
2024/01/20 05:10:39;;;;;;;8.13;3.70;;;-2.90;99.90;;;;;;5129018;27;20205;-69
2024/01/20 05:13:04;;;;;;;8.53;3.07;;;-2.70;99.90;;;;;;5094088;27;20226;-70
2024/01/20 05:15:31;;;;;;;4.97;3.20;;;-2.70;99.90;;;;;;5095112;27;20230;-70
2024/01/20 05:17:56;;;;;;;10.03;4.70;;;-2.60;99.90;;;;;;5130031;27;20229;-70
2024/01/20 05:20:22;;;;;;;9.23;3.40;;;-2.70;99.90;;;;;;5122700;27;20474;-70
2024/01/20 05:22:48;;;;;;;4.67;3.10;;;-2.80;99.90;;;;;;5112417;27;20308;-70
2024/01/20 05:25:14;;;;;;;8.37;4.07;;;-2.90;99.90;;;;;;5096355;27;20217;-69
2024/01/20 05:27:40;;;;;;;7.37;3.57;;;-3.00;99.90;;;;;;5110982;27;20454;-70
2024/01/20 05:30:06;;;;;;;12.40;4.17;;;-2.80;99.90;;;;;;5091172;27;20451;-70
2024/01/20 05:32:32;;;;;;;6.20;3.77;;;-2.70;99.90;;;;;;5125335;27;20456;-70
2024/01/20 05:34:58;;;;;;;9.20;4.67;;;-2.60;99.90;;;;;;5125933;27;20442;-70
2024/01/20 05:37:23;;;;;;;11.30;3.77;;;-2.50;99.90;;;;;;5111643;27;20319;-70
2024/01/20 05:39:50;;;;;;;10.63;3.37;;;-2.60;99.90;;;;;;5127111;27;20265;-69
2024/01/20 05:42:16;;;;;;;10.70;4.97;;;-2.50;99.90;;;;;;5129456;27;20210;-70
2024/01/20 05:44:42;;;;;;;9.00;4.40;;;-2.50;99.90;;;;;;5122791;27;20452;-70
2024/01/20 05:47:07;;;;;;;7.33;3.77;;;-2.50;99.90;;;;;;5125358;27;20219;-70
2024/01/20 05:49:33;;;;;;;8.57;4.00;;;-2.60;99.90;;;;;;5111093;27;20691;-69
2024/01/20 05:51:58;;;;;;;8.37;4.23;;;-2.50;99.90;;;;;;5093255;27;20213;-70
2024/01/20 05:54:24;;;;;;;9.57;4.53;;;-2.40;99.90;;;;;;5111101;27;20268;-69
2024/01/20 05:56:50;;;;;;;7.90;3.90;;;-2.40;99.90;;;;;;5111790;27;20312;-70
2024/01/20 05:59:15;;;;;;;5.20;3.50;;;-2.40;99.90;;;;;;5128377;27;20240;-70
2024/01/20 06:01:41;;;;;;;8.07;3.77;;;-2.40;99.90;;;;;;5122217;27;20210;-69
2024/01/20 06:04:06;;;;;;;5.07;3.07;;;-2.40;99.90;;;;;;5128000;27;20209;-69
2024/01/20 06:06:32;;;;;;;12.17;4.73;;;-2.50;99.90;;;;;;5111043;27;20234;-70
2024/01/20 06:08:58;;;;;;;9.03;4.23;;;-2.50;99.90;;;;;;5089130;27;20205;-70
2024/01/20 06:11:24;;;;;;;6.57;2.90;;;-2.50;99.90;;;;;;5126466;27;20492;-69
2024/01/20 06:13:50;;;;;;;11.43;4.27;;;-2.50;99.90;;;;;;5126537;27;20277;-70
2024/01/20 06:16:16;;;;;;;11.60;4.07;;;-2.50;99.90;;;;;;5125347;27;20222;-69
2024/01/20 06:18:41;;;;;;;8.93;4.20;;;-2.40;99.90;;;;;;5124518;27;20462;-69
2024/01/20 06:21:08;;;;;;;9.97;4.50;;;-2.40;99.90;;;;;;5109774;27;20210;-70
2024/01/20 06:23:34;;;;;;;12.97;4.73;;;-2.40;99.90;;;;;;5108765;27;20221;-69
2024/01/20 06:25:59;;;;;;;9.33;4.30;;;-2.50;99.90;;;;;;5096646;27;20452;-70
2024/01/20 06:28:26;;;;;;;9.13;4.00;;;-2.50;99.90;;;;;;5123450;27;20444;-69
2024/01/20 06:30:52;;;;;;;7.27;4.00;;;-2.50;99.90;;;;;;5128960;27;20227;-69
2024/01/20 06:33:18;;;;;;;7.37;3.60;;;-2.50;99.90;;;;;;5107423;27;21006;-70
2024/01/20 06:35:44;;;;;;;12.20;4.70;;;-2.40;99.90;;;;;;5130390;27;20471;-69
2024/01/20 06:38:10;;;;;;;12.90;4.70;;;-2.40;99.90;;;;;;5109042;28;20462;-69
2024/01/20 06:40:35;;;;;;;8.97;4.50;;;-2.30;99.90;;;;;;5109702;27;20483;-69
2024/01/20 06:43:03;;;;;;;5.63;2.87;;;-2.40;99.90;;;;;;5104431;28;20321;-70
2024/01/20 06:45:33;;;;;;;9.83;4.73;;;-2.50;99.90;;;;;;5127233;27;20221;-70
2024/01/20 06:48:00;;;;;;;13.80;5.47;;;-2.50;99.90;;;;;;5110011;27;20454;-70
2024/01/20 06:50:25;;;;;;;11.00;5.20;;;-2.40;99.90;;;;;;5128343;27;20468;-69
2024/01/20 06:52:51;;;;;;;13.37;4.87;;;-2.60;99.90;;;;;;5101215;28;20466;-70
2024/01/20 06:55:16;;;;;;;10.50;5.60;;;-2.60;99.90;;;;;;5109932;28;20241;-70
2024/01/20 06:57:42;;;;;;;15.57;6.10;;;-2.70;99.90;;;;;;5112409;27;20239;-70
2024/01/20 07:00:08;;;;;;;13.00;5.27;;;-3.00;99.90;;;;;;5120762;27;20220;-70
2024/01/20 07:02:34;;;;;;;10.23;4.70;;;-3.10;99.90;;;;;;5099254;27;20227;-70
2024/01/20 07:05:00;;;;;;;8.23;4.13;;;-3.10;99.90;;;;;;5121839;27;20464;-70
2024/01/20 07:07:26;;;;;;;10.50;5.60;;;-2.90;99.90;;;;;;5127785;27;20512;-70
2024/01/20 07:09:51;;;;;;;14.50;6.80;;;-2.70;99.90;;;;;;5094621;28;20343;-70
2024/01/20 07:12:17;;;;;;;14.17;4.87;;;-2.90;99.90;;;;;;5125110;27;20597;-70
2024/01/20 07:14:43;;;;;;;16.63;6.40;;;-3.20;99.90;;;;;;5096736;27;20218;-71
2024/01/20 07:17:09;;;;;;;18.20;5.57;;;-3.10;99.90;;;;;;5125674;27;20221;-70
2024/01/20 07:19:34;;;;;;;10.20;5.33;;;-3.00;99.90;;;;;;5123016;27;20232;-70
2024/01/20 07:22:00;;;;;;;11.67;5.17;;;-3.00;99.90;;;;;;5110174;28;20447;-70
2024/01/20 07:24:27;;;;;;;8.93;4.20;;;-2.90;99.90;;;;;;5107328;28;20228;-70
2024/01/20 07:26:54;;;;;;;12.20;4.43;;;-3.00;99.90;;;;;;5110099;28;20218;-70
2024/01/20 07:29:19;;;;;;;20.70;6.13;;;-2.80;99.90;;;;;;5092973;28;20450;-70
2024/01/20 07:31:45;;;;;;;15.53;5.70;;;-2.60;99.90;;;;;;5111939;27;20451;-70
2024/01/20 07:34:10;;;;;;;11.40;4.43;;;-2.50;99.90;;;;;;5113459;27;20224;-69
2024/01/20 07:36:37;;;;;;;6.43;2.90;;;-2.60;99.90;;;;;;5110037;27;20261;-69
2024/01/20 07:39:04;;;;;;;16.80;6.83;;;-2.70;99.90;;;;;;5108117;27;20245;-70
2024/01/20 07:41:30;;;;;;;15.03;5.27;;;-3.10;99.90;;;;;;5111463;27;20448;-70
2024/01/20 07:43:56;;;;;;;13.20;5.30;;;-2.90;99.90;;;;;;5095033;27;20452;-70
2024/01/20 07:46:22;;;;;;;6.73;4.50;;;-3.00;99.90;;;;;;5132743;27;20455;-70
2024/01/20 07:48:48;;;;;;;17.37;4.80;;;-2.80;99.90;;;;;;5131174;27;20213;-68
2024/01/20 07:51:14;;;;;;;12.33;5.17;;;-2.70;99.90;;;;;;5126740;27;20466;-70
2024/01/20 07:53:39;;;;;;;8.73;4.63;;;-2.70;99.90;;;;;;5112745;27;20447;-69
2024/01/20 07:56:09;;;;;;;12.17;5.37;;;-2.70;99.90;;;;;;5130804;27;20221;-69
2024/01/20 07:58:35;;;;;;;6.43;4.20;;;-2.80;99.90;;;;;;5112132;27;20229;-71
2024/01/20 08:01:00;;;;;;;8.70;3.87;;;-2.90;99.90;;;;;;5094546;27;20455;-69
2024/01/20 08:03:26;;;;;;;15.57;8.63;;;-2.90;99.90;;;;;;5127580;27;20251;-67
2024/01/20 08:05:52;;;;;;;16.43;7.83;;;-2.90;99.90;;;;;;5128589;27;20218;-70
2024/01/20 08:08:18;;;;;;;12.87;5.77;;;-3.30;99.90;;;;;;5110305;27;20221;-69
2024/01/20 08:10:44;;;;;;;9.90;5.50;;;-3.50;99.90;;;;;;5112179;27;20447;-69
2024/01/20 08:13:09;;;;;;;9.10;5.20;;;-3.20;99.90;;;;;;5111862;27;20484;-69
2024/01/20 08:15:35;;;;;;;11.43;6.00;;;-3.00;99.90;;;;;;5110307;27;20236;-70
2024/01/20 08:18:01;;;;;;;10.30;4.90;;;-2.90;99.90;;;;;;5128136;27;20245;-70
2024/01/20 08:20:27;;;;;;;14.93;7.03;;;-2.80;99.90;;;;;;5127070;27;20221;-70
2024/01/20 08:22:53;;;;;;;10.00;4.40;;;-3.20;99.90;;;;;;5092773;27;20281;-70
2024/01/20 08:25:18;;;;;;;8.37;4.00;;;-3.60;99.90;;;;;;5126106;27;20496;-70
2024/01/20 08:27:44;;;;;;;19.57;11.00;;;-3.30;99.90;;;;;;5124760;27;20225;-70
2024/01/20 08:30:10;;;;;;;16.87;9.23;;;-3.30;99.90;;;;;;5127980;27;20215;-69
2024/01/20 08:32:37;;;;;;;10.00;6.13;;;-3.10;99.90;;;;;;5112042;27;20217;-69
2024/01/20 08:35:03;;;;;;;12.70;5.10;;;-3.00;99.90;;;;;;5127549;27;20462;-70
2024/01/20 08:37:29;;;;;;;9.70;4.93;;;-2.90;99.90;;;;;;5125764;27;20574;-70
2024/01/20 08:39:54;;;;;;;5.43;2.90;;;-2.90;99.90;;;;;;5094766;27;20487;-70
2024/01/20 08:42:20;;;;;;;6.70;3.53;;;-2.80;99.90;;;;;;5106426;27;20221;-70
2024/01/20 08:44:46;;;;;;;9.00;4.90;;;-2.80;99.90;;;;;;5130598;27;20237;-70
2024/01/20 08:47:12;;;;;;;12.53;5.10;;;-2.90;99.90;;;;;;5103257;27;20217;-69
2024/01/20 08:49:37;;;;;;;7.87;5.43;;;-3.10;99.90;;;;;;5126227;27;20221;-70
2024/01/20 08:52:03;;;;;;;13.23;4.40;;;-3.00;99.90;;;;;;5107133;27;20451;-70
2024/01/20 08:54:29;;;;;;;11.07;4.70;;;-3.00;99.90;;;;;;5112280;27;20233;-70
2024/01/20 08:56:55;;;;;;;13.50;4.33;;;-3.00;99.90;;;;;;5109138;27;20478;-68
2024/01/20 08:59:20;;;;;;;11.33;5.40;;;-3.10;99.90;;;;;;5119803;27;20240;-69
2024/01/20 09:01:46;;;;;;;11.67;4.27;;;-3.10;99.90;;;;;;5108285;27;20232;-69
2024/01/20 09:04:12;;;;;;;12.20;4.70;;;-3.00;99.90;;;;;;5125782;27;20241;-70
2024/01/20 09:06:38;;;;;;;5.70;3.10;;;-2.90;99.90;;;;;;5127010;27;20228;-69
2024/01/20 09:09:06;;;;;;;9.60;5.10;;;-3.00;99.90;;;;;;5124086;27;20308;-69
2024/01/20 09:11:32;;;;;;;6.70;2.83;;;-2.90;99.90;;;;;;5128405;27;20547;-69
2024/01/20 09:13:57;;;;;;;5.20;2.50;;;-2.90;99.90;;;;;;5123618;27;20293;-68
2024/01/20 09:16:23;;;;;;;10.70;5.10;;;-2.80;99.90;;;;;;5129784;27;20272;-70
2024/01/20 09:18:48;;;;;;;8.77;4.10;;;-2.80;99.90;;;;;;5126964;27;20222;-70
2024/01/20 09:21:14;;;;;;;6.33;3.80;;;-2.90;99.90;;;;;;5107485;27;20213;-71
2024/01/20 09:23:40;;;;;;;4.83;2.80;;;-2.90;99.90;;;;;;5123253;27;20220;-70
2024/01/20 09:26:06;;;;;;;8.10;4.90;;;-2.90;99.90;;;;;;5111288;27;20212;-71
2024/01/20 09:28:32;;;;;;;8.77;4.53;;;-2.80;99.90;;;;;;5100988;27;20468;-69
2024/01/20 09:30:58;;;;;;;6.30;4.10;;;-2.70;99.90;;;;;;5097363;27;20211;-69
2024/01/20 09:33:24;;;;;;;11.37;4.10;;;-2.70;99.90;;;;;;5095052;27;20871;-71
2024/01/20 09:35:49;;;;;;;9.20;4.73;;;-2.60;99.90;;;;;;5107070;27;20214;-71
2024/01/20 09:38:15;;;;;;;14.37;5.60;;;-2.70;99.90;;;;;;5122263;27;20245;-69
2024/01/20 09:40:41;;;;;;;11.43;4.93;;;-2.70;99.90;;;;;;5109343;27;20235;-69
2024/01/20 09:43:08;;;;;;;7.83;3.70;;;-2.80;99.90;;;;;;5124115;27;20278;-70
2024/01/20 09:45:38;;;;;;;6.67;3.60;;;-2.80;99.90;;;;;;5094324;27;20462;-70
2024/01/20 09:48:06;;;;;;;13.57;4.80;;;-2.80;99.90;;;;;;5123728;27;20451;-69
2024/01/20 09:50:31;;;;;;;8.57;4.13;;;-2.70;99.90;;;;;;5108814;27;20451;-69
2024/01/20 09:53:01;;;;;;;15.17;6.20;;;-2.70;99.90;;;;;;5126204;27;20476;-69
2024/01/20 09:55:28;;;;;;;9.90;5.63;;;-2.80;99.90;;;;;;5107832;27;20216;-70
2024/01/20 09:57:55;;;;;;;10.37;5.17;;;-3.10;99.90;;;;;;5123209;27;20458;-70
2024/01/20 10:00:22;;;;;;;7.17;3.50;;;-2.90;99.90;;;;;;5108065;27;20467;-69
2024/01/20 10:02:48;;;;;;;9.57;4.30;;;-2.80;99.90;;;;;;5126329;27;20447;-70
2024/01/20 10:05:15;;;;;;;10.53;4.43;;;-2.70;99.90;;;;;;5119304;27;20446;-71
2024/01/20 10:07:42;;;;;;;10.20;4.87;;;-2.70;99.90;;;;;;5112009;27;20508;-70
2024/01/20 10:10:11;;;;;;;12.07;5.97;;;-2.60;99.90;;;;;;5089557;27;20827;-69
2024/01/20 10:12:37;;;;;;;15.10;5.00;;;-2.60;99.90;;;;;;5126269;27;20459;-70
2024/01/20 10:15:04;;;;;;;13.53;5.17;;;-2.70;99.90;;;;;;5104889;27;20477;-71
2024/01/20 10:17:35;;;;;;;11.37;4.43;;;-2.70;99.90;;;;;;5106809;27;20208;-70
2024/01/20 10:20:01;;;;;;;14.90;5.97;;;-2.70;99.90;;;;;;5120342;27;20453;-70
2024/01/20 10:22:26;;;;;;;10.77;5.03;;;-2.60;99.90;;;;;;5102558;27;20844;-70
2024/01/20 10:24:52;;;;;;;9.40;4.80;;;-2.60;99.90;;;;;;5122230;27;20221;-70
2024/01/20 10:27:25;;;;;;;15.10;5.60;;;-2.60;99.90;;;;;;5104016;27;20218;-69
2024/01/20 10:29:51;;;;;;;10.37;5.10;;;-2.50;99.90;;;;;;5124821;27;20451;-70
2024/01/20 10:32:17;;;;;;;11.43;4.13;;;-2.50;99.90;;;;;;5095278;27;20461;-69
2024/01/20 10:34:44;;;;;;;10.53;4.20;;;-2.50;99.90;;;;;;5107147;27;20236;-70
2024/01/20 10:37:11;;;;;;;13.93;5.20;;;-2.50;99.90;;;;;;5103749;27;20891;-70
2024/01/20 10:39:44;;;;;;;10.17;4.67;;;-2.50;99.90;;;;;;5121890;27;20471;-70
2024/01/20 10:42:15;;;;;;;13.80;5.30;;;-2.50;99.90;;;;;;5104395;27;20567;-70
2024/01/20 10:44:55;;;;;;;15.83;4.90;;;-2.40;99.90;;;;;;5122072;27;20472;-70
2024/01/20 10:47:41;;;;;;;10.53;4.50;;;-2.60;99.90;;;;;;5095090;27;20486;-70
2024/01/20 10:50:08;;;;;;;14.53;6.50;;;-2.60;99.90;;;;;;5122750;27;20536;-70
2024/01/20 10:52:35;;;;;;;21.20;5.70;;;-2.70;99.90;;;;;;5085979;27;20453;-69
2024/01/20 10:55:05;;;;;;;15.83;6.33;;;-2.70;99.90;;;;;;5104627;28;20953;-70
2024/01/20 10:57:31;;;;;;;15.17;6.70;;;-2.70;99.90;;;;;;5105906;28;20440;-70
2024/01/20 10:59:59;;;;;;;8.77;4.03;;;-2.60;99.90;;;;;;5107819;28;20585;-70
2024/01/20 11:02:26;;;;;;;10.77;6.00;;;-2.50;99.90;;;;;;5109582;28;20458;-69
2024/01/20 11:04:52;;;;;;;14.57;5.90;;;-2.50;99.90;;;;;;5124815;27;20459;-70
2024/01/20 11:07:26;;;;;;;12.60;5.13;;;-2.50;99.90;;;;;;5128057;27;20454;-69
2024/01/20 11:10:01;;;;;;;7.23;4.50;;;-2.40;99.90;;;;;;5127320;27;20450;-71
2024/01/20 11:12:28;;;;;;;12.80;5.53;;;-2.50;99.90;;;;;;5115311;27;20446;-69
2024/01/20 11:14:55;;;;;;;11.83;5.00;;;-2.40;99.90;;;;;;5108330;27;20439;-70
2024/01/20 11:17:22;;;;;;;8.93;3.53;;;-2.50;99.90;;;;;;5131119;27;20467;-70
2024/01/20 11:19:49;;;;;;;15.17;5.90;;;-2.40;99.90;;;;;;5108196;27;20559;-70
2024/01/20 11:22:31;;;;;;;10.27;5.47;;;-2.30;99.90;;;;;;5111473;27;20447;-70
2024/01/20 11:25:02;;;;;;;11.80;5.53;;;-2.50;99.90;;;;;;5124645;27;20455;-70
2024/01/20 11:27:28;;;;;;;10.37;5.33;;;-2.60;99.90;;;;;;5131116;27;20534;-70
2024/01/20 11:30:06;;;;;;;13.83;5.50;;;-2.60;99.90;;;;;;5119820;27;20563;-71
2024/01/20 11:32:33;;;;;;;9.40;4.93;;;-2.40;99.90;;;;;;5128555;27;20225;-70
2024/01/20 11:35:00;;;;;;;10.20;4.60;;;-2.60;99.90;;;;;;5095944;27;20442;-70
2024/01/20 11:37:29;;;;;;;13.27;5.87;;;-2.60;99.90;;;;;;5093210;27;20451;-70
2024/01/20 11:40:07;;;;;;;11.87;5.10;;;-2.50;99.90;;;;;;5107752;27;20448;-70
2024/01/20 11:42:33;;;;;;;8.70;4.60;;;-2.40;99.90;;;;;;5113913;27;20819;-70
2024/01/20 11:45:08;;;;;;;15.10;5.20;;;-2.40;99.90;;;;;;5127309;27;20811;-71
2024/01/20 11:47:34;;;;;;;9.43;5.00;;;-2.70;99.90;;;;;;5110756;27;20444;-70
2024/01/20 11:50:01;;;;;;;11.00;5.30;;;-2.80;99.90;;;;;;5127670;27;20454;-69
2024/01/20 11:52:27;;;;;;;16.20;7.10;;;-2.60;99.90;;;;;;5120688;27;20348;-70
2024/01/20 11:54:53;;;;;;;13.73;5.43;;;-2.50;99.90;;;;;;5131187;27;20542;-71
2024/01/20 11:57:24;;;;;;;11.70;5.33;;;-2.40;99.90;;;;;;5096064;27;20547;-70
2024/01/20 11:59:50;;;;;;;14.53;5.53;;;-2.30;99.90;;;;;;5084596;27;20589;-69
2024/01/20 12:02:20;;;;;;;11.47;4.97;;;-2.20;99.90;;;;;;5094236;27;20449;-70
2024/01/20 12:04:45;;;;;;;8.73;4.80;;;-2.20;99.90;;;;;;5113856;27;20248;-70
2024/01/20 12:07:11;;;;;;;14.10;6.50;;;-2.10;99.90;;;;;;5104674;27;20488;-70
2024/01/20 12:09:37;;;;;;;13.03;5.50;;;-2.10;99.90;;;;;;5098940;27;20213;-70
2024/01/20 12:12:04;;;;;;;11.80;5.50;;;-2.20;99.90;;;;;;5106439;27;20237;-70
2024/01/20 12:14:30;;;;;;;9.50;4.70;;;-2.10;99.90;;;;;;5106747;27;20226;-70
2024/01/20 12:16:56;;;;;;;12.50;4.97;;;-2.10;99.90;;;;;;5106531;27;20480;-70
2024/01/20 12:19:22;;;;;;;14.40;5.57;;;-2.10;99.90;;;;;;5125714;27;20455;-70
2024/01/20 12:21:49;;;;;;;9.37;5.47;;;-2.10;99.90;;;;;;5105156;27;20460;-69
2024/01/20 12:24:15;;;;;;;11.90;4.90;;;-2.10;99.90;;;;;;5110112;27;20459;-69
2024/01/20 12:26:41;;;;;;;13.80;6.37;;;-2.10;99.90;;;;;;5108318;27;20459;-70
2024/01/20 12:29:07;;;;;;;7.33;4.23;;;-2.10;99.90;;;;;;5121575;27;20221;-70
2024/01/20 12:31:32;;;;;;;11.60;5.43;;;-2.10;99.90;;;;;;5095845;27;20827;-70
2024/01/20 12:33:59;;;;;;;7.77;4.77;;;-2.00;99.90;;;;;;5102253;27;20305;-70
2024/01/20 12:36:28;;;;;;;10.73;5.33;;;-2.00;99.90;;;;;;5119634;27;20233;-70